Time;durP1;ratioP1;P1;durP2;ratioP2;P2;SDS_P1;SDS_P2;PMS_P1;PMS_P2;Temp;Humidity;BMP_temperature;BMP_pressure;BME280_temperature;BME280_humidity;BME280_pressure;Samples;Min_cycle;Max_cycle;Signal;HPM_P1;HPM_P2
2022/03/09 00:03:53;;;;;;;136.40;52.38;;;;;;;;;;8267536;28;20486;-77
2022/03/09 00:07:56;;;;;;;135.88;50.63;;;;;;;;;;8266976;28;20045;-77
2022/03/09 00:11:59;;;;;;;139.23;49.72;;;;;;;;;;8275153;28;20053;-77
2022/03/09 00:16:02;;;;;;;171.75;54.30;;;;;;;;;;8274574;28;20501;-77
2022/03/09 00:20:07;;;;;;;137.65;48.35;;;;;;;;;;8262658;28;20436;-77
2022/03/09 00:24:10;;;;;;;150.32;49.42;;;;;;;;;;8264693;28;20038;-78
2022/03/09 00:28:13;;;;;;;148.23;49.50;;;;;;;;;;8266855;28;20053;-75
2022/03/09 00:32:16;;;;;;;133.07;47.10;;;;;;;;;;8269408;28;20061;-75
2022/03/09 00:36:20;;;;;;;135.52;49.38;;;;;;;;;;8298751;28;20125;-75
2022/03/09 00:40:23;;;;;;;139.70;50.58;;;;;;;;;;8298562;28;20041;-75
2022/03/09 00:44:25;;;;;;;135.18;47.38;;;;;;;;;;8298993;28;20100;-75
2022/03/09 00:48:28;;;;;;;141.98;50.42;;;;;;;;;;8298448;28;20546;-75
2022/03/09 00:52:32;;;;;;;151.07;50.50;;;;;;;;;;8298589;28;20492;-75
2022/03/09 00:56:35;;;;;;;137.55;47.03;;;;;;;;;;8298114;28;20117;-75
2022/03/09 01:00:38;;;;;;;147.75;52.17;;;;;;;;;;8297806;28;20100;-75
2022/03/09 01:04:40;;;;;;;154.63;52.05;;;;;;;;;;8297738;28;20053;-76
2022/03/09 01:08:44;;;;;;;144.00;49.55;;;;;;;;;;8297927;28;20048;-76
2022/03/09 01:12:47;;;;;;;122.88;45.83;;;;;;;;;;8297405;28;20057;-76
2022/03/09 01:16:49;;;;;;;131.20;48.15;;;;;;;;;;8297550;28;20042;-76
2022/03/09 01:20:52;;;;;;;134.73;46.83;;;;;;;;;;8297046;28;20128;-76
2022/03/09 01:24:56;;;;;;;144.93;47.22;;;;;;;;;;8297464;28;20044;-76
2022/03/09 01:28:59;;;;;;;126.15;45.63;;;;;;;;;;8281988;28;20478;-76
2022/03/09 01:33:02;;;;;;;120.57;43.97;;;;;;;;;;8288907;28;20065;-76
2022/03/09 01:37:05;;;;;;;90.72;35.53;;;;;;;;;;8297594;28;20045;-76
2022/03/09 01:41:09;;;;;;;86.13;33.58;;;;;;;;;;8296553;28;20042;-76
2022/03/09 01:45:14;;;;;;;88.72;33.25;;;;;;;;;;8296719;28;20069;-76
2022/03/09 01:49:17;;;;;;;91.47;36.03;;;;;;;;;;8295800;28;20121;-75
2022/03/09 01:53:20;;;;;;;76.13;32.22;;;;;;;;;;8289977;28;20082;-76
2022/03/09 01:57:24;;;;;;;83.68;31.92;;;;;;;;;;8292860;28;21891;-76
2022/03/09 02:01:27;;;;;;;78.18;30.23;;;;;;;;;;8292458;28;20508;-76
2022/03/09 02:05:29;;;;;;;54.47;24.30;;;;;;;;;;8294707;28;20046;-76
2022/03/09 02:09:44;;;;;;;54.50;23.33;;;;;;;;;;8296576;28;20069;-76
2022/03/09 02:13:48;;;;;;;53.78;23.85;;;;;;;;;;8296716;28;20100;-76
2022/03/09 02:17:51;;;;;;;54.65;23.02;;;;;;;;;;8297049;28;20053;-74
2022/03/09 02:22:04;;;;;;;51.53;24.05;;;;;;;;;;8288641;28;20474;-75
2022/03/09 02:26:08;;;;;;;52.25;23.67;;;;;;;;;;8288475;28;20490;-75
2022/03/09 02:30:14;;;;;;;63.30;24.35;;;;;;;;;;8287827;28;20050;-76
2022/03/09 02:34:16;;;;;;;55.78;25.58;;;;;;;;;;8281230;28;20508;-75
2022/03/09 02:38:21;;;;;;;59.83;25.60;;;;;;;;;;8297227;28;20073;-75
2022/03/09 02:42:25;;;;;;;59.95;25.38;;;;;;;;;;8292595;28;20621;-75
2022/03/09 02:46:28;;;;;;;66.47;27.02;;;;;;;;;;8296055;28;20050;-75
2022/03/09 02:50:30;;;;;;;58.90;25.45;;;;;;;;;;8295705;28;20046;-75
2022/03/09 02:54:33;;;;;;;56.83;24.35;;;;;;;;;;8296049;28;20095;-76
2022/03/09 02:58:37;;;;;;;59.75;23.58;;;;;;;;;;8301989;28;20391;-76
2022/03/09 03:02:41;;;;;;;56.92;26.20;;;;;;;;;;8301931;28;20050;-76
2022/03/09 03:06:43;;;;;;;56.78;24.67;;;;;;;;;;8302240;28;20056;-77
2022/03/09 03:10:46;;;;;;;62.58;25.90;;;;;;;;;;8301795;28;20038;-77
2022/03/09 03:14:50;;;;;;;54.90;23.25;;;;;;;;;;8301415;28;20087;-76
2022/03/09 03:18:52;;;;;;;54.25;23.67;;;;;;;;;;8301691;28;20049;-76
2022/03/09 03:22:55;;;;;;;47.72;22.63;;;;;;;;;;8301268;28;20478;-76
2022/03/09 03:26:58;;;;;;;46.50;21.38;;;;;;;;;;8300962;28;20116;-77
2022/03/09 03:31:02;;;;;;;51.33;21.92;;;;;;;;;;8301120;28;20123;-77
2022/03/09 03:35:06;;;;;;;46.40;21.63;;;;;;;;;;8326351;28;20419;-76
2022/03/09 03:39:09;;;;;;;57.03;22.35;;;;;;;;;;8334058;28;20462;-76
2022/03/09 03:43:12;;;;;;;45.05;19.50;;;;;;;;;;8333668;28;20060;-76
2022/03/09 03:47:17;;;;;;;54.75;23.42;;;;;;;;;;8332983;28;20407;-76
2022/03/09 03:51:19;;;;;;;51.45;22.90;;;;;;;;;;8317183;28;20077;-76
2022/03/09 03:55:22;;;;;;;58.80;25.77;;;;;;;;;;8332794;28;20463;-76
2022/03/09 03:59:25;;;;;;;54.63;25.67;;;;;;;;;;8332777;28;20485;-76
2022/03/09 04:03:29;;;;;;;58.92;27.73;;;;;;;;;;8332730;28;20481;-76
2022/03/09 04:07:32;;;;;;;56.63;26.80;;;;;;;;;;8332606;28;20049;-75
2022/03/09 04:11:34;;;;;;;60.53;28.13;;;;;;;;;;8332981;28;20112;-76
2022/03/09 04:15:37;;;;;;;62.40;27.17;;;;;;;;;;8332756;28;20056;-76
2022/03/09 04:19:41;;;;;;;58.92;27.05;;;;;;;;;;8331554;28;20511;-76
2022/03/09 04:23:43;;;;;;;58.42;26.80;;;;;;;;;;8332620;28;20053;-76
2022/03/09 04:27:46;;;;;;;52.72;25.50;;;;;;;;;;8332607;28;20042;-76
2022/03/09 04:31:48;;;;;;;54.88;25.42;;;;;;;;;;8332066;28;20048;-75
2022/03/09 04:35:53;;;;;;;52.15;22.95;;;;;;;;;;8329480;28;20060;-75
2022/03/09 04:39:55;;;;;;;51.60;22.63;;;;;;;;;;8331515;28;20045;-76
2022/03/09 04:43:58;;;;;;;59.50;27.00;;;;;;;;;;8331471;28;20076;-76
2022/03/09 04:48:00;;;;;;;58.97;26.00;;;;;;;;;;8331459;28;20049;-76
2022/03/09 04:52:06;;;;;;;60.78;26.23;;;;;;;;;;8330806;28;20053;-76
2022/03/09 04:56:08;;;;;;;56.35;24.30;;;;;;;;;;8331546;28;20045;-75
2022/03/09 05:00:11;;;;;;;55.33;24.17;;;;;;;;;;8331753;28;20041;-75
2022/03/09 05:04:14;;;;;;;59.42;25.70;;;;;;;;;;8330778;28;20441;-75
2022/03/09 05:08:18;;;;;;;58.78;25.52;;;;;;;;;;8329611;28;20048;-75
2022/03/09 05:12:22;;;;;;;73.10;30.38;;;;;;;;;;8310702;28;20107;-75
2022/03/09 05:16:27;;;;;;;59.08;26.70;;;;;;;;;;8330466;28;20048;-74
2022/03/09 05:20:30;;;;;;;54.05;25.38;;;;;;;;;;8329950;28;20128;-75
2022/03/09 05:24:34;;;;;;;52.55;23.13;;;;;;;;;;8330372;28;20049;-75
2022/03/09 05:28:39;;;;;;;59.00;24.60;;;;;;;;;;8330207;28;20358;-76
2022/03/09 05:32:43;;;;;;;66.97;28.55;;;;;;;;;;8329824;28;20054;-76
2022/03/09 05:36:46;;;;;;;75.20;30.92;;;;;;;;;;8330017;28;20056;-76
2022/03/09 05:40:50;;;;;;;71.10;31.55;;;;;;;;;;8336458;28;20042;-76
2022/03/09 05:44:52;;;;;;;57.72;25.35;;;;;;;;;;8329603;28;20128;-76
2022/03/09 05:48:55;;;;;;;68.45;31.10;;;;;;;;;;8350198;28;20401;-76
2022/03/09 05:52:58;;;;;;;61.63;26.90;;;;;;;;;;8354718;28;20080;-76
2022/03/09 05:57:05;;;;;;;62.55;30.35;;;;;;;;;;8330247;28;20103;-76
2022/03/09 06:01:07;;;;;;;71.82;28.75;;;;;;;;;;8330276;28;20065;-76
2022/03/09 06:05:13;;;;;;;65.45;29.13;;;;;;;;;;8329920;28;20456;-76
2022/03/09 06:09:15;;;;;;;81.22;32.53;;;;;;;;;;8329831;28;20095;-76
2022/03/09 06:13:20;;;;;;;55.10;24.77;;;;;;;;;;8329984;28;20103;-77
2022/03/09 06:17:23;;;;;;;60.50;27.75;;;;;;;;;;8329177;28;20497;-76
2022/03/09 06:21:35;;;;;;;64.30;27.90;;;;;;;;;;8339397;28;20049;-77
2022/03/09 06:25:38;;;;;;;61.22;26.63;;;;;;;;;;8326361;28;20041;-76
2022/03/09 06:29:43;;;;;;;64.65;28.38;;;;;;;;;;8328955;28;20049;-77
2022/03/09 06:33:45;;;;;;;66.78;29.65;;;;;;;;;;8331198;28;20412;-76
2022/03/09 06:37:48;;;;;;;81.43;32.70;;;;;;;;;;8328779;28;20040;-76
2022/03/09 06:41:51;;;;;;;84.85;35.50;;;;;;;;;;8332585;28;20107;-77
2022/03/09 06:45:55;;;;;;;94.40;36.67;;;;;;;;;;8331900;28;20473;-76
2022/03/09 06:49:58;;;;;;;69.05;31.63;;;;;;;;;;8344668;28;20135;-76
2022/03/09 06:54:01;;;;;;;80.38;31.17;;;;;;;;;;8334210;28;20056;-76
2022/03/09 06:58:04;;;;;;;61.47;25.95;;;;;;;;;;8334209;28;20042;-76
2022/03/09 07:02:09;;;;;;;50.45;20.95;;;;;;;;;;8335568;28;20481;-76
2022/03/09 07:06:13;;;;;;;45.55;21.13;;;;;;;;;;8335216;28;20397;-76
2022/03/09 07:10:16;;;;;;;46.55;21.42;;;;;;;;;;8334497;28;20050;-76
2022/03/09 07:14:21;;;;;;;40.08;19.27;;;;;;;;;;8334976;28;20052;-76
2022/03/09 07:18:37;;;;;;;43.90;19.17;;;;;;;;;;8335095;28;20075;-76
2022/03/09 07:22:45;;;;;;;31.75;16.42;;;;;;;;;;8334429;28;20087;-76
2022/03/09 07:26:51;;;;;;;32.33;16.30;;;;;;;;;;8334883;28;20054;-76
2022/03/09 07:30:54;;;;;;;30.35;15.85;;;;;;;;;;8334409;28;20373;-77
2022/03/09 07:34:58;;;;;;;42.33;19.25;;;;;;;;;;8333874;28;20424;-77
2022/03/09 07:39:01;;;;;;;40.53;18.38;;;;;;;;;;8334139;28;20404;-76
2022/03/09 07:43:04;;;;;;;41.80;21.38;;;;;;;;;;8333088;28;20049;-76
2022/03/09 07:47:08;;;;;;;36.42;17.75;;;;;;;;;;8334558;28;20087;-76
2022/03/09 07:51:13;;;;;;;37.97;18.58;;;;;;;;;;8334151;28;20049;-76
2022/03/09 07:55:16;;;;;;;41.30;18.67;;;;;;;;;;8334054;28;20413;-76
2022/03/09 07:59:19;;;;;;;41.00;18.73;;;;;;;;;;8333576;28;20041;-76
2022/03/09 08:03:22;;;;;;;43.55;19.52;;;;;;;;;;8333527;28;20145;-77
2022/03/09 08:07:26;;;;;;;42.30;18.33;;;;;;;;;;8333263;28;20064;-76
2022/03/09 08:11:30;;;;;;;46.08;17.50;;;;;;;;;;8333248;28;20398;-76
2022/03/09 08:15:34;;;;;;;39.33;18.02;;;;;;;;;;8332792;28;20045;-76
2022/03/09 08:19:37;;;;;;;37.33;17.65;;;;;;;;;;8333152;28;20052;-76
2022/03/09 08:23:41;;;;;;;36.55;16.60;;;;;;;;;;8332625;28;20128;-76
2022/03/09 08:27:44;;;;;;;34.08;15.93;;;;;;;;;;8332548;28;20057;-76
2022/03/09 08:31:47;;;;;;;33.75;16.25;;;;;;;;;;8332560;28;20061;-76
2022/03/09 08:35:50;;;;;;;31.90;15.40;;;;;;;;;;8332045;28;20140;-76
2022/03/09 08:39:55;;;;;;;34.70;15.75;;;;;;;;;;8332093;28;20135;-76
2022/03/09 08:43:58;;;;;;;36.53;17.65;;;;;;;;;;8332131;28;20115;-76
2022/03/09 08:48:01;;;;;;;34.25;16.08;;;;;;;;;;8331747;28;20159;-77
2022/03/09 08:52:06;;;;;;;32.10;16.20;;;;;;;;;;8331512;28;20045;-76
2022/03/09 08:56:11;;;;;;;29.67;16.00;;;;;;;;;;8331482;28;20382;-76
2022/03/09 09:00:14;;;;;;;34.80;16.40;;;;;;;;;;8331952;28;20045;-76
2022/03/09 09:04:17;;;;;;;33.25;16.00;;;;;;;;;;8331253;28;20053;-77
2022/03/09 09:08:20;;;;;;;26.55;15.82;;;;;;;;;;8331226;28;20133;-77
2022/03/09 09:12:25;;;;;;;28.52;16.27;;;;;;;;;;8331626;28;20513;-77
2022/03/09 09:16:27;;;;;;;30.25;17.48;;;;;;;;;;8331349;28;20054;-77
2022/03/09 09:20:30;;;;;;;27.80;16.23;;;;;;;;;;8331482;28;20049;-77
2022/03/09 09:24:33;;;;;;;28.45;16.45;;;;;;;;;;8330908;28;20051;-77
2022/03/09 09:28:38;;;;;;;28.65;15.57;;;;;;;;;;8330895;28;20367;-76
2022/03/09 09:32:41;;;;;;;33.85;16.10;;;;;;;;;;8330845;28;20448;-77
2022/03/09 09:36:46;;;;;;;27.20;15.35;;;;;;;;;;8313194;28;20053;-77
2022/03/09 09:40:53;;;;;;;28.55;15.10;;;;;;;;;;8330610;28;20048;-76
2022/03/09 09:45:00;;;;;;;24.67;12.32;;;;;;;;;;8331098;28;20055;-77
2022/03/09 09:49:03;;;;;;;26.40;13.52;;;;;;;;;;8331014;28;20048;-76
2022/03/09 09:53:06;;;;;;;29.63;13.68;;;;;;;;;;8330919;28;20481;-77
2022/03/09 09:57:13;;;;;;;24.67;12.50;;;;;;;;;;8330416;28;20136;-76
2022/03/09 10:01:17;;;;;;;23.17;12.68;;;;;;;;;;8330322;28;20045;-77
2022/03/09 10:05:20;;;;;;;20.60;10.50;;;;;;;;;;8332662;28;20128;-76
2022/03/09 10:09:23;;;;;;;20.25;10.32;;;;;;;;;;8336728;28;20053;-77
2022/03/09 10:13:27;;;;;;;21.13;10.52;;;;;;;;;;8337101;28;20405;-77
2022/03/09 10:17:32;;;;;;;18.45;9.77;;;;;;;;;;8336752;28;20484;-76
2022/03/09 10:21:37;;;;;;;21.70;11.23;;;;;;;;;;8336844;28;20046;-78
2022/03/09 10:25:41;;;;;;;22.02;11.85;;;;;;;;;;8336839;28;20473;-77
2022/03/09 10:29:55;;;;;;;25.08;10.70;;;;;;;;;;8336704;28;20073;-77
2022/03/09 10:34:07;;;;;;;13.32;7.35;;;;;;;;;;8336187;28;20094;-77
2022/03/09 10:38:24;;;;;;;16.15;7.20;;;;;;;;;;8336587;28;20049;-76
2022/03/09 10:42:27;;;;;;;12.75;6.95;;;;;;;;;;8335795;28;20409;-77
2022/03/09 10:46:42;;;;;;;15.13;6.70;;;;;;;;;;8335760;28;20516;-77
2022/03/09 10:50:52;;;;;;;15.50;6.57;;;;;;;;;;8335960;28;20552;-77
2022/03/09 10:54:54;;;;;;;13.82;7.13;;;;;;;;;;8335369;28;20083;-76
2022/03/09 10:58:57;;;;;;;14.82;6.50;;;;;;;;;;8335407;28;20511;-77
2022/03/09 11:03:06;;;;;;;14.70;6.25;;;;;;;;;;8335594;28;20515;-77
2022/03/09 11:07:10;;;;;;;10.25;6.15;;;;;;;;;;8335371;28;20060;-77
2022/03/09 11:11:14;;;;;;;28.45;14.40;;;;;;;;;;8334995;28;20049;-77
2022/03/09 11:15:17;;;;;;;19.38;7.90;;;;;;;;;;8334439;28;20057;-77
2022/03/09 11:19:20;;;;;;;13.40;5.63;;;;;;;;;;8333860;28;20456;-77
2022/03/09 11:23:25;;;;;;;10.65;4.57;;;;;;;;;;8334986;28;20099;-77
2022/03/09 11:27:31;;;;;;;9.18;3.80;;;;;;;;;;8334484;28;20053;-77
2022/03/09 11:31:45;;;;;;;9.70;4.72;;;;;;;;;;8334881;28;20064;-77
2022/03/09 11:35:49;;;;;;;8.80;4.03;;;;;;;;;;8334213;28;20140;-77
2022/03/09 11:40:17;;;;;;;11.13;4.72;;;;;;;;;;8334627;28;20400;-77
2022/03/09 11:44:30;;;;;;;18.55;5.60;;;;;;;;;;8333971;28;20073;-77
2022/03/09 11:48:51;;;;;;;10.27;5.00;;;;;;;;;;8333871;28;20091;-77
2022/03/09 11:53:00;;;;;;;15.20;6.07;;;;;;;;;;8334286;28;20049;-77
2022/03/09 11:57:04;;;;;;;11.40;5.80;;;;;;;;;;8333610;28;20132;-77
2022/03/09 12:01:07;;;;;;;9.40;4.82;;;;;;;;;;8333424;28;20566;-77
2022/03/09 12:05:36;;;;;;;12.68;5.50;;;;;;;;;;8334208;28;20107;-77
2022/03/09 12:09:58;;;;;;;16.77;6.82;;;;;;;;;;8333091;28;20451;-76
2022/03/09 12:14:02;;;;;;;12.48;6.05;;;;;;;;;;8333243;28;20050;-77
2022/03/09 12:18:32;;;;;;;10.00;5.10;;;;;;;;;;8333120;28;20045;-77
2022/03/09 12:23:04;;;;;;;15.40;6.88;;;;;;;;;;8333381;28;20056;-77
2022/03/09 12:27:26;;;;;;;11.15;5.90;;;;;;;;;;8332155;28;20110;-77
2022/03/09 12:31:32;;;;;;;12.95;6.60;;;;;;;;;;8332812;28;20042;-76
2022/03/09 12:35:35;;;;;;;13.13;6.57;;;;;;;;;;8332084;28;20488;-77
2022/03/09 12:39:39;;;;;;;28.67;7.78;;;;;;;;;;8332324;28;20559;-77
2022/03/09 12:43:47;;;;;;;15.32;7.75;;;;;;;;;;8332012;28;20049;-77
2022/03/09 12:47:54;;;;;;;14.70;7.15;;;;;;;;;;8331897;28;20176;-77
2022/03/09 12:51:59;;;;;;;14.95;7.47;;;;;;;;;;8331931;28;20102;-77
2022/03/09 12:56:14;;;;;;;14.25;6.72;;;;;;;;;;8331593;28;20045;-77
2022/03/09 13:00:17;;;;;;;10.75;6.38;;;;;;;;;;8332000;28;20128;-77
2022/03/09 13:04:23;;;;;;;11.23;5.60;;;;;;;;;;8331400;28;20045;-77
2022/03/09 13:08:35;;;;;;;14.25;6.40;;;;;;;;;;8331840;28;20416;-77
2022/03/09 13:12:50;;;;;;;13.57;6.45;;;;;;;;;;8331273;28;20111;-77
2022/03/09 13:17:03;;;;;;;11.88;6.45;;;;;;;;;;8331548;28;20525;-77
2022/03/09 13:21:08;;;;;;;13.00;6.65;;;;;;;;;;8331066;28;20057;-76
2022/03/09 13:25:11;;;;;;;13.38;6.80;;;;;;;;;;8331107;28;20049;-77
2022/03/09 13:29:19;;;;;;;11.88;6.38;;;;;;;;;;8330997;28;20459;-77
2022/03/09 13:33:24;;;;;;;22.10;9.38;;;;;;;;;;8331196;28;20196;-77
2022/03/09 13:37:36;;;;;;;17.42;8.02;;;;;;;;;;8331513;28;20097;-77
2022/03/09 13:41:41;;;;;;;101.13;37.35;;;;;;;;;;8329973;28;20487;-76
2022/03/09 13:45:45;;;;;;;12.55;6.35;;;;;;;;;;8330893;28;20054;-76
2022/03/09 13:49:49;;;;;;;31.20;13.55;;;;;;;;;;8330611;28;20068;-78
2022/03/09 13:54:03;;;;;;;22.05;11.40;;;;;;;;;;8330582;28;20516;-77
2022/03/09 13:58:08;;;;;;;18.50;8.30;;;;;;;;;;8330380;28;20128;-77
2022/03/09 14:02:21;;;;;;;16.42;7.53;;;;;;;;;;8330805;28;20409;-76
2022/03/09 14:06:26;;;;;;;16.73;9.25;;;;;;;;;;8330362;28;20052;-76
2022/03/09 14:10:33;;;;;;;17.13;8.07;;;;;;;;;;8330180;28;20068;-77
2022/03/09 14:14:40;;;;;;;20.83;8.70;;;;;;;;;;8330132;28;20099;-77
2022/03/09 14:18:43;;;;;;;17.10;9.35;;;;;;;;;;8330018;28;20058;-77
2022/03/09 14:22:47;;;;;;;14.07;7.05;;;;;;;;;;8330448;28;20065;-77
2022/03/09 14:26:53;;;;;;;23.73;13.95;;;;;;;;;;8344793;28;20171;-78
2022/03/09 14:30:56;;;;;;;16.05;8.32;;;;;;;;;;8331788;28;20501;-78
2022/03/09 14:34:59;;;;;;;16.88;9.48;;;;;;;;;;8327913;28;20049;-78
2022/03/09 14:39:03;;;;;;;20.55;10.90;;;;;;;;;;8339257;28;20037;-78
2022/03/09 14:43:08;;;;;;;24.25;11.35;;;;;;;;;;8357176;28;20057;-78
2022/03/09 14:47:11;;;;;;;22.95;12.30;;;;;;;;;;8333305;28;20060;-78
2022/03/09 14:51:14;;;;;;;23.02;13.52;;;;;;;;;;8323938;28;20041;-80
2022/03/09 14:55:17;;;;;;;16.60;9.05;;;;;;;;;;8350121;28;20056;-79
2022/03/09 14:59:25;;;;;;;18.15;8.55;;;;;;;;;;8363769;28;20041;-81
2022/03/09 15:03:29;;;;;;;13.65;7.35;;;;;;;;;;8334919;28;20076;-82
2022/03/09 15:07:33;;;;;;;14.45;6.28;;;;;;;;;;8338281;28;20111;-82
2022/03/09 15:11:36;;;;;;;10.85;4.72;;;;;;;;;;8361025;28;20056;-81
2022/03/09 15:15:40;;;;;;;13.27;6.18;;;;;;;;;;8340808;28;20037;-81
2022/03/09 15:19:44;;;;;;;11.93;5.15;;;;;;;;;;8333529;28;20452;-79
2022/03/09 15:23:50;;;;;;;9.23;4.75;;;;;;;;;;8333551;28;20401;-81
2022/03/09 15:27:53;;;;;;;10.23;4.05;;;;;;;;;;8329434;28;20069;-80
2022/03/09 15:32:00;;;;;;;8.68;4.28;;;;;;;;;;8335247;28;20041;-80
2022/03/09 15:36:04;;;;;;;16.45;8.05;;;;;;;;;;8332542;28;20040;-82
2022/03/09 15:40:08;;;;;;;18.38;8.32;;;;;;;;;;8328958;28;20116;-80
2022/03/09 15:44:22;;;;;;;12.60;6.90;;;;;;;;;;8328891;28;20100;-80
2022/03/09 15:48:43;;;;;;;12.93;4.63;;;;;;;;;;8328156;28;20045;-79
2022/03/09 15:52:47;;;;;;;9.80;3.80;;;;;;;;;;8326429;28;20056;-80
2022/03/09 15:56:51;;;;;;;13.35;3.72;;;;;;;;;;8328241;28;20052;-81
2022/03/09 16:00:53;;;;;;;59.63;25.92;;;;;;;;;;8328345;28;20489;-80
2022/03/09 16:04:59;;;;;;;28.60;12.20;;;;;;;;;;8329906;28;20413;-81
2022/03/09 16:09:02;;;;;;;136.85;43.53;;;;;;;;;;8331707;28;20095;-80
2022/03/09 16:13:05;;;;;;;44.13;16.70;;;;;;;;;;8332695;28;20057;-81
2022/03/09 16:17:08;;;;;;;11.25;5.15;;;;;;;;;;8330942;28;20053;-79
2022/03/09 16:21:16;;;;;;;119.00;42.28;;;;;;;;;;8330736;28;20056;-82
2022/03/09 16:25:25;;;;;;;30.83;12.45;;;;;;;;;;8330933;28;20053;-81
2022/03/09 16:29:35;;;;;;;18.42;7.40;;;;;;;;;;8325284;28;20180;-80
2022/03/09 16:33:43;;;;;;;73.57;25.23;;;;;;;;;;8323408;28;20478;-78
2022/03/09 16:38:00;;;;;;;38.20;15.82;;;;;;;;;;8327295;28;20144;-78
2022/03/09 16:42:06;;;;;;;13.50;8.25;;;;;;;;;;8327717;28;20045;-78
2022/03/09 16:46:13;;;;;;;71.93;24.50;;;;;;;;;;8329364;28;20045;-80
2022/03/09 16:50:21;;;;;;;10.98;5.35;;;;;;;;;;8326530;28;20049;-82
2022/03/09 16:54:26;;;;;;;16.65;5.38;;;;;;;;;;8328456;28;20053;-78
2022/03/09 16:58:29;;;;;;;12.98;5.38;;;;;;;;;;8329837;28;20056;-81
2022/03/09 17:02:34;;;;;;;29.60;11.05;;;;;;;;;;8326800;28;20408;-79
2022/03/09 17:06:37;;;;;;;14.05;7.43;;;;;;;;;;8337469;28;20070;-80
2022/03/09 17:10:48;;;;;;;18.63;7.93;;;;;;;;;;8337570;28;20072;-78
2022/03/09 17:14:58;;;;;;;14.73;6.28;;;;;;;;;;8343656;28;20454;-79
2022/03/09 17:19:01;;;;;;;13.63;6.10;;;;;;;;;;8352140;28;20107;-81
2022/03/09 17:23:05;;;;;;;15.40;6.80;;;;;;;;;;8345322;28;20588;-80
2022/03/09 17:27:12;;;;;;;36.47;14.95;;;;;;;;;;8316800;28;20540;-80
2022/03/09 17:31:18;;;;;;;19.83;8.23;;;;;;;;;;8344352;28;20038;-79
2022/03/09 17:35:22;;;;;;;16.80;8.30;;;;;;;;;;8337668;28;20464;-81
2022/03/09 17:39:26;;;;;;;27.73;12.02;;;;;;;;;;8331596;28;20041;-82
2022/03/09 17:43:30;;;;;;;63.90;27.48;;;;;;;;;;8347824;28;20052;-81
2022/03/09 17:47:34;;;;;;;119.10;36.90;;;;;;;;;;8332536;28;20142;-81
2022/03/09 17:51:38;;;;;;;276.52;115.55;;;;;;;;;;8317912;28;20351;-80
2022/03/09 17:55:41;;;;;;;133.63;42.30;;;;;;;;;;8355116;28;20043;-80
2022/03/09 17:59:49;;;;;;;88.53;33.33;;;;;;;;;;8335312;28;20493;-78
2022/03/09 18:03:52;;;;;;;130.15;41.17;;;;;;;;;;8325850;28;20428;-79
2022/03/09 18:07:58;;;;;;;111.70;51.28;;;;;;;;;;8323240;28;20115;-80
2022/03/09 18:12:03;;;;;;;147.90;31.85;;;;;;;;;;8327975;28;20413;-78
2022/03/09 18:16:08;;;;;;;91.45;25.20;;;;;;;;;;8326651;28;20045;-81
2022/03/09 18:20:15;;;;;;;57.78;22.48;;;;;;;;;;8325054;28;20052;-79
2022/03/09 18:24:19;;;;;;;52.90;18.58;;;;;;;;;;8328908;28;20453;-79
2022/03/09 18:28:22;;;;;;;83.68;27.75;;;;;;;;;;8345209;28;20128;-80
2022/03/09 18:32:34;;;;;;;65.20;23.77;;;;;;;;;;8333520;28;20496;-81
2022/03/09 18:36:39;;;;;;;43.70;17.73;;;;;;;;;;8346192;28;20485;-82
2022/03/09 18:40:45;;;;;;;93.82;29.80;;;;;;;;;;8334562;28;20048;-79
2022/03/09 18:44:52;;;;;;;101.38;31.20;;;;;;;;;;8335293;28;20045;-81
2022/03/09 18:49:04;;;;;;;46.80;16.67;;;;;;;;;;8331380;28;20397;-81
2022/03/09 18:53:07;;;;;;;52.97;19.37;;;;;;;;;;8332306;28;20138;-80
2022/03/09 18:57:12;;;;;;;72.30;27.73;;;;;;;;;;8336412;28;20050;-78
2022/03/09 19:01:17;;;;;;;41.60;15.23;;;;;;;;;;8313057;28;20072;-78
2022/03/09 19:05:24;;;;;;;137.10;39.20;;;;;;;;;;8333330;28;20132;-85
2022/03/09 19:09:28;;;;;;;96.30;31.08;;;;;;;;;;8333712;28;20086;-84
2022/03/09 19:13:33;;;;;;;308.88;85.30;;;;;;;;;;8335814;28;20124;-82
2022/03/09 19:17:36;;;;;;;25.85;13.95;;;;;;;;;;8334017;28;20120;-90
2022/03/09 19:21:45;;;;;;;85.93;27.95;;;;;;;;;;8331709;28;20469;-84
2022/03/09 19:25:49;;;;;;;148.55;85.68;;;;;;;;;;8328896;28;20042;-80
2022/03/09 19:29:53;;;;;;;53.30;21.95;;;;;;;;;;8331452;28;20046;-78
2022/03/09 19:33:58;;;;;;;37.17;17.08;;;;;;;;;;8331543;28;20053;-81
2022/03/09 19:38:04;;;;;;;29.60;14.05;;;;;;;;;;8353525;28;20046;-78
2022/03/09 19:42:14;;;;;;;117.40;33.47;;;;;;;;;;8329490;28;20106;-81
2022/03/09 19:46:24;;;;;;;267.25;53.60;;;;;;;;;;8349961;28;20071;-77
2022/03/09 19:50:27;;;;;;;174.18;44.70;;;;;;;;;;8334778;28;20591;-82
2022/03/09 19:54:32;;;;;;;162.65;41.17;;;;;;;;;;8353646;28;20049;-81
2022/03/09 19:58:35;;;;;;;149.82;40.35;;;;;;;;;;8337123;28;20041;-78
2022/03/09 20:02:39;;;;;;;67.43;19.40;;;;;;;;;;8346117;28;20045;-86
2022/03/09 20:06:44;;;;;;;148.02;41.78;;;;;;;;;;8334830;28;20125;-82
2022/03/09 20:11:01;;;;;;;184.48;51.17;;;;;;;;;;8333718;28;20144;-85
2022/03/09 20:15:10;;;;;;;219.07;59.00;;;;;;;;;;8342979;28;20405;-78
2022/03/09 20:19:21;;;;;;;214.00;53.17;;;;;;;;;;8332653;28;20056;-79
2022/03/09 20:23:30;;;;;;;100.00;31.33;;;;;;;;;;8334019;28;20052;-80
2022/03/09 20:27:35;;;;;;;49.45;19.98;;;;;;;;;;8347585;28;20052;-77
2022/03/09 20:31:39;;;;;;;73.07;27.25;;;;;;;;;;8332477;28;20045;-79
2022/03/09 20:35:47;;;;;;;123.90;41.05;;;;;;;;;;8331764;28;20461;-80
2022/03/09 20:39:50;;;;;;;94.85;29.65;;;;;;;;;;8332136;28;20515;-79
2022/03/09 20:43:55;;;;;;;79.38;34.03;;;;;;;;;;8333559;28;20041;-78
2022/03/09 20:47:59;;;;;;;44.40;18.45;;;;;;;;;;8364849;28;20049;-80
2022/03/09 20:52:04;;;;;;;46.90;17.92;;;;;;;;;;8331412;28;20046;-78
2022/03/09 20:56:08;;;;;;;79.80;30.30;;;;;;;;;;8331753;28;20099;-77
2022/03/09 21:00:15;;;;;;;98.68;33.38;;;;;;;;;;8330634;28;20128;-76
2022/03/09 21:04:18;;;;;;;61.08;24.58;;;;;;;;;;8331230;28;20444;-76
2022/03/09 21:08:25;;;;;;;95.90;32.60;;;;;;;;;;8331286;28;20045;-75
2022/03/09 21:12:30;;;;;;;101.70;37.60;;;;;;;;;;8331372;28;20072;-79
2022/03/09 21:16:35;;;;;;;24.83;11.70;;;;;;;;;;8322219;28;20045;-77
2022/03/09 21:20:38;;;;;;;68.22;25.88;;;;;;;;;;8330593;28;20081;-77
2022/03/09 21:29:02;;;;;;;54.17;20.67;;;;;;;;;;8321926;28;20122;-77
2022/03/09 21:33:06;;;;;;;67.75;21.98;;;;;;;;;;8329977;28;20195;-76
2022/03/09 21:37:09;;;;;;;57.50;21.60;;;;;;;;;;8330929;28;20049;-76
2022/03/09 21:41:12;;;;;;;58.05;21.65;;;;;;;;;;8330815;28;20041;-76
2022/03/09 21:45:15;;;;;;;40.40;16.83;;;;;;;;;;8335091;28;20050;-79
2022/03/09 21:49:20;;;;;;;114.15;34.20;;;;;;;;;;8364020;28;20389;-77
2022/03/09 21:53:24;;;;;;;172.30;49.33;;;;;;;;;;8363553;28;20075;-78
2022/03/09 21:57:27;;;;;;;29.77;12.30;;;;;;;;;;8330294;28;20516;-78
2022/03/09 22:01:30;;;;;;;37.60;16.23;;;;;;;;;;8337848;28;20055;-77
2022/03/09 22:05:35;;;;;;;26.17;11.55;;;;;;;;;;8370552;28;20424;-77
2022/03/09 22:09:38;;;;;;;38.95;16.40;;;;;;;;;;8370465;28;20041;-77
2022/03/09 22:13:41;;;;;;;22.48;9.50;;;;;;;;;;8370095;28;20057;-78
2022/03/09 22:17:43;;;;;;;21.77;10.27;;;;;;;;;;8345894;28;20050;-77
2022/03/09 22:21:48;;;;;;;52.88;20.38;;;;;;;;;;8335864;28;20045;-77
2022/03/09 22:25:50;;;;;;;43.88;16.15;;;;;;;;;;8335929;28;20050;-78
2022/03/09 22:29:53;;;;;;;104.45;32.58;;;;;;;;;;8336066;28;20490;-76
2022/03/09 22:33:56;;;;;;;18.23;9.30;;;;;;;;;;8335439;28;20412;-77
2022/03/09 22:38:00;;;;;;;46.72;17.00;;;;;;;;;;8335792;28;20099;-77
2022/03/09 22:42:02;;;;;;;31.17;13.40;;;;;;;;;;8336202;28;20096;-77
2022/03/09 22:46:06;;;;;;;47.08;18.40;;;;;;;;;;8335323;28;20123;-77
2022/03/09 22:50:10;;;;;;;14.70;7.20;;;;;;;;;;8336059;28;20053;-77
2022/03/09 22:54:14;;;;;;;19.48;8.85;;;;;;;;;;8335162;28;20056;-76
2022/03/09 22:58:21;;;;;;;14.57;6.70;;;;;;;;;;8335316;28;20049;-76
2022/03/09 23:02:23;;;;;;;18.73;7.85;;;;;;;;;;8335532;28;20128;-76
2022/03/09 23:06:26;;;;;;;17.38;7.15;;;;;;;;;;8333975;28;20102;-78
2022/03/09 23:10:31;;;;;;;22.58;9.93;;;;;;;;;;8334874;28;20053;-78
2022/03/09 23:14:33;;;;;;;17.33;7.95;;;;;;;;;;8332019;28;20052;-79
2022/03/09 23:18:37;;;;;;;17.15;7.45;;;;;;;;;;8333158;28;20156;-80
2022/03/09 23:22:48;;;;;;;18.95;8.57;;;;;;;;;;8331908;28;20417;-78
2022/03/09 23:26:53;;;;;;;17.52;8.40;;;;;;;;;;8333561;28;20129;-80
2022/03/09 23:30:55;;;;;;;17.13;8.27;;;;;;;;;;8333005;28;20460;-80
2022/03/09 23:34:58;;;;;;;16.25;7.07;;;;;;;;;;8333064;28;20053;-78
2022/03/09 23:39:00;;;;;;;15.60;8.15;;;;;;;;;;8332312;28;20116;-78
2022/03/09 23:43:06;;;;;;;19.85;7.30;;;;;;;;;;8332876;28;20053;-78
2022/03/09 23:47:09;;;;;;;19.50;9.57;;;;;;;;;;8328166;28;20063;-78
2022/03/09 23:51:12;;;;;;;16.48;7.95;;;;;;;;;;8328743;28;20041;-78
2022/03/09 23:55:15;;;;;;;14.18;7.10;;;;;;;;;;8326907;28;20405;-80